Time;durP1;ratioP1;P1;durP2;ratioP2;P2;SDS_P1;SDS_P2;PMS_P1;PMS_P2;Temp;Humidity;BMP_temperature;BMP_pressure;BME280_temperature;BME280_humidity;BME280_pressure;Samples;Min_cycle;Max_cycle;Signal;HPM_P1;HPM_P2
2020/12/29 00:01:35;;;;;;;8.63;7.00;;;7.80;99.90;;;;;;5091727;28;20111;-73
2020/12/29 00:04:02;;;;;;;15.80;7.15;;;7.70;99.90;;;;;;5089894;28;20032;-74
2020/12/29 00:06:28;;;;;;;15.57;7.85;;;7.70;99.90;;;;;;5093046;28;20024;-73
2020/12/29 00:08:56;;;;;;;8.93;7.68;;;7.70;99.90;;;;;;5092403;28;20012;-73
2020/12/29 00:11:23;;;;;;;11.45;7.32;;;7.70;99.90;;;;;;5093211;28;20020;-72
2020/12/29 00:13:49;;;;;;;10.48;6.80;;;7.60;99.90;;;;;;5091778;28;20024;-75
2020/12/29 00:16:14;;;;;;;11.30;7.10;;;7.60;99.90;;;;;;5087968;28;20029;-72
2020/12/29 00:18:40;;;;;;;12.93;7.13;;;7.50;99.90;;;;;;5087958;28;20060;-72
2020/12/29 00:21:06;;;;;;;13.32;7.80;;;7.50;99.90;;;;;;5081793;28;20055;-72
2020/12/29 00:23:32;;;;;;;13.85;7.25;;;7.50;99.90;;;;;;5090491;28;20035;-73
2020/12/29 00:25:58;;;;;;;11.32;7.97;;;7.40;99.90;;;;;;5090469;28;20024;-72
2020/12/29 00:28:24;;;;;;;14.45;7.72;;;7.40;99.90;;;;;;5090687;28;20023;-75
2020/12/29 00:30:50;;;;;;;13.10;8.00;;;7.40;99.90;;;;;;5092644;28;20024;-75
2020/12/29 00:33:15;;;;;;;19.98;9.10;;;7.30;99.90;;;;;;5091602;28;20676;-72
2020/12/29 00:35:41;;;;;;;13.60;9.10;;;7.20;99.90;;;;;;5084126;28;20775;-73
2020/12/29 00:38:07;;;;;;;19.20;7.90;;;7.20;99.90;;;;;;5082703;28;20069;-72
2020/12/29 00:40:33;;;;;;;10.55;6.93;;;7.00;99.90;;;;;;5091456;28;20036;-73
2020/12/29 00:42:59;;;;;;;12.95;9.00;;;6.90;99.90;;;;;;5090772;28;20035;-72
2020/12/29 00:45:24;;;;;;;10.65;8.18;;;6.80;99.90;;;;;;5089569;28;20043;-72
2020/12/29 00:47:50;;;;;;;12.93;8.45;;;6.80;99.90;;;;;;5090389;28;20084;-72
2020/12/29 00:50:16;;;;;;;15.40;8.10;;;6.70;99.90;;;;;;5091316;28;20107;-73
2020/12/29 00:52:42;;;;;;;17.63;11.20;;;6.70;99.90;;;;;;5089791;28;20034;-72
2020/12/29 00:55:08;;;;;;;13.75;9.18;;;6.70;99.90;;;;;;5089888;28;20027;-73
2020/12/29 00:57:33;;;;;;;9.52;7.15;;;6.70;99.90;;;;;;5091184;28;20066;-72
2020/12/29 00:59:59;;;;;;;11.25;8.23;;;6.70;99.90;;;;;;5089948;28;20024;-74
2020/12/29 01:02:25;;;;;;;12.98;8.65;;;6.60;99.90;;;;;;5091444;28;20024;-73
2020/12/29 01:04:51;;;;;;;13.57;8.60;;;6.60;99.90;;;;;;5083237;28;20123;-75
2020/12/29 01:07:17;;;;;;;9.68;7.35;;;6.60;99.90;;;;;;5085551;28;20066;-73
2020/12/29 01:09:43;;;;;;;15.77;8.90;;;6.50;99.90;;;;;;5082464;28;20024;-72
2020/12/29 01:12:08;;;;;;;12.07;7.25;;;6.50;99.90;;;;;;5091656;28;20027;-73
2020/12/29 01:14:34;;;;;;;12.20;8.40;;;6.60;99.90;;;;;;5090060;28;20077;-73
2020/12/29 01:17:00;;;;;;;13.90;9.23;;;6.60;99.90;;;;;;5090504;28;20039;-73
2020/12/29 01:19:26;;;;;;;12.52;7.63;;;6.60;99.90;;;;;;5089980;28;20129;-72
2020/12/29 01:21:52;;;;;;;13.68;9.80;;;6.70;99.90;;;;;;5091641;28;20024;-73
2020/12/29 01:24:19;;;;;;;14.93;7.93;;;6.60;99.90;;;;;;5089456;28;20024;-76
2020/12/29 01:26:45;;;;;;;10.30;7.78;;;6.70;99.90;;;;;;5092258;28;20028;-72
2020/12/29 01:29:11;;;;;;;12.15;7.78;;;6.60;99.90;;;;;;5091413;28;20024;-73
2020/12/29 01:31:37;;;;;;;11.82;8.05;;;6.60;99.90;;;;;;5091827;28;20023;-72
2020/12/29 01:34:03;;;;;;;14.43;8.02;;;6.60;99.90;;;;;;5089050;28;20622;-72
2020/12/29 01:36:31;;;;;;;12.95;8.10;;;6.60;99.90;;;;;;5090970;28;20035;-72
2020/12/29 01:38:57;;;;;;;9.07;7.07;;;6.60;99.90;;;;;;5092258;28;20406;-77
2020/12/29 01:41:23;;;;;;;10.60;6.75;;;6.60;99.90;;;;;;5089191;28;20024;-72
2020/12/29 01:43:50;;;;;;;17.40;8.30;;;6.60;99.90;;;;;;5089426;28;20058;-73
2020/12/29 01:46:16;;;;;;;10.93;7.05;;;6.70;99.90;;;;;;5091797;28;20421;-72
2020/12/29 01:48:43;;;;;;;17.80;8.02;;;6.60;99.90;;;;;;5092272;28;20016;-73
2020/12/29 01:51:09;;;;;;;12.90;8.85;;;6.60;99.90;;;;;;5092231;28;20539;-72
2020/12/29 01:53:39;;;;;;;11.55;9.50;;;6.60;99.90;;;;;;5089313;28;20139;-73
2020/12/29 01:56:10;;;;;;;14.40;7.75;;;6.70;99.90;;;;;;5090816;28;20521;-74
2020/12/29 01:58:39;;;;;;;8.82;7.70;;;6.80;99.90;;;;;;5090476;28;20578;-74
2020/12/29 02:01:05;;;;;;;15.45;8.43;;;6.70;99.90;;;;;;5090260;28;20028;-73
2020/12/29 02:03:31;;;;;;;12.07;8.27;;;6.70;99.90;;;;;;5084489;28;20030;-74
2020/12/29 02:05:57;;;;;;;13.85;8.48;;;6.60;99.90;;;;;;5090409;28;20039;-73
2020/12/29 02:08:25;;;;;;;14.10;7.60;;;6.60;99.90;;;;;;5090018;28;20055;-73
2020/12/29 02:10:54;;;;;;;11.68;8.25;;;6.60;99.90;;;;;;5091870;28;20020;-74
2020/12/29 02:13:20;;;;;;;7.78;7.07;;;6.60;99.90;;;;;;5088588;28;20035;-73
2020/12/29 02:15:46;;;;;;;12.05;7.97;;;6.60;99.90;;;;;;5091727;28;20032;-72
2020/12/29 02:18:12;;;;;;;10.60;8.00;;;6.60;99.90;;;;;;5089923;28;20024;-72
2020/12/29 02:20:38;;;;;;;10.65;7.03;;;6.70;99.90;;;;;;5094027;28;20076;-73
2020/12/29 02:23:04;;;;;;;9.85;7.15;;;6.70;99.90;;;;;;5095873;28;20027;-73
2020/12/29 02:25:30;;;;;;;14.30;7.45;;;6.70;99.90;;;;;;5089803;28;20534;-76
2020/12/29 02:27:55;;;;;;;13.13;7.75;;;6.70;99.90;;;;;;5093986;28;20021;-72
2020/12/29 02:30:21;;;;;;;9.80;7.85;;;6.70;99.90;;;;;;5095838;28;20055;-72
2020/12/29 02:32:47;;;;;;;10.50;6.68;;;6.70;99.90;;;;;;5092983;28;20044;-72
2020/12/29 02:35:17;;;;;;;9.20;6.00;;;6.80;99.90;;;;;;5090782;28;20020;-72
2020/12/29 02:37:44;;;;;;;13.52;6.72;;;6.70;99.90;;;;;;5091091;28;20028;-72
2020/12/29 02:40:10;;;;;;;8.73;5.50;;;6.80;99.90;;;;;;5096201;28;20024;-71
2020/12/29 02:42:36;;;;;;;20.17;6.55;;;6.80;99.90;;;;;;5094392;28;20024;-74
2020/12/29 02:45:03;;;;;;;26.85;9.93;;;6.90;99.90;;;;;;5091218;28;20051;-72
2020/12/29 02:47:29;;;;;;;10.60;6.85;;;6.90;99.90;;;;;;5093288;28;20047;-72
2020/12/29 02:49:55;;;;;;;12.25;6.25;;;6.90;99.90;;;;;;5094664;28;20490;-73
2020/12/29 02:52:21;;;;;;;15.70;11.48;;;7.00;99.90;;;;;;5096008;28;20376;-73
2020/12/29 02:54:47;;;;;;;9.20;5.88;;;7.10;99.90;;;;;;5093920;28;20039;-74
2020/12/29 02:57:13;;;;;;;7.57;5.65;;;7.10;99.90;;;;;;5094090;28;20024;-75
2020/12/29 02:59:39;;;;;;;14.90;6.05;;;7.20;99.90;;;;;;5091695;28;20502;-73
2020/12/29 03:02:04;;;;;;;7.13;4.80;;;7.30;99.90;;;;;;5091066;28;20419;-72
2020/12/29 03:04:30;;;;;;;12.23;8.48;;;7.30;99.90;;;;;;5093950;28;20498;-72
2020/12/29 03:06:56;;;;;;;11.52;6.38;;;7.40;99.90;;;;;;5095498;28;20028;-73
2020/12/29 03:09:22;;;;;;;9.52;5.05;;;7.30;99.90;;;;;;5094055;28;20123;-75
2020/12/29 03:11:48;;;;;;;10.57;5.22;;;7.40;99.90;;;;;;5093553;28;20044;-72
2020/12/29 03:14:14;;;;;;;10.55;5.43;;;7.40;99.90;;;;;;5094211;28;20479;-73
2020/12/29 03:16:40;;;;;;;11.40;5.43;;;7.30;99.90;;;;;;5092843;28;20687;-74
2020/12/29 03:19:06;;;;;;;11.82;4.80;;;7.40;99.90;;;;;;5093808;28;20112;-73
2020/12/29 03:21:32;;;;;;;6.97;4.72;;;7.40;99.90;;;;;;5094796;28;20393;-73
2020/12/29 03:23:58;;;;;;;8.32;4.93;;;7.40;99.90;;;;;;5094118;28;20027;-74
2020/12/29 03:26:25;;;;;;;7.50;4.28;;;7.50;99.90;;;;;;5093604;28;20097;-73
2020/12/29 03:28:52;;;;;;;9.32;5.03;;;7.50;99.90;;;;;;5090789;28;20502;-72
2020/12/29 03:31:18;;;;;;;9.70;5.15;;;7.50;99.90;;;;;;5093804;28;20015;-72
2020/12/29 03:33:44;;;;;;;16.10;6.22;;;7.60;99.90;;;;;;5091549;28;20024;-72
2020/12/29 03:36:11;;;;;;;8.13;5.85;;;7.60;99.90;;;;;;5093662;28;20020;-73
2020/12/29 03:38:37;;;;;;;19.35;9.25;;;7.60;99.90;;;;;;5091694;28;20042;-73
2020/12/29 03:41:03;;;;;;;15.77;6.75;;;7.80;99.90;;;;;;5093056;28;20487;-72
2020/12/29 03:43:29;;;;;;;8.88;5.40;;;8.00;99.90;;;;;;5092564;28;20035;-73
2020/12/29 03:45:55;;;;;;;10.82;5.65;;;8.00;99.90;;;;;;5092167;28;20016;-73
2020/12/29 03:48:23;;;;;;;7.70;4.32;;;8.00;99.90;;;;;;5092473;28;20055;-73
2020/12/29 03:50:49;;;;;;;12.10;5.25;;;8.10;99.90;;;;;;5092982;28;20016;-72
2020/12/29 03:53:15;;;;;;;11.40;4.85;;;8.20;99.90;;;;;;5093425;28;20734;-72
2020/12/29 03:55:41;;;;;;;10.88;5.90;;;8.20;99.90;;;;;;5091145;28;20040;-73
2020/12/29 03:58:08;;;;;;;11.13;5.00;;;8.30;99.90;;;;;;5086478;28;20059;-73
2020/12/29 04:00:35;;;;;;;11.40;5.75;;;8.30;99.90;;;;;;5091660;28;20024;-72
2020/12/29 04:03:01;;;;;;;9.82;6.07;;;8.40;99.90;;;;;;5093405;28;20020;-74
2020/12/29 04:05:27;;;;;;;10.00;6.72;;;8.30;99.90;;;;;;5091952;28;20058;-72
2020/12/29 04:07:53;;;;;;;8.60;4.57;;;8.30;99.90;;;;;;5093868;28;20519;-75
2020/12/29 04:10:19;;;;;;;10.57;4.25;;;8.30;99.90;;;;;;5088518;28;20513;-75
2020/12/29 04:12:45;;;;;;;10.88;4.05;;;8.30;99.90;;;;;;5091740;28;20093;-76
2020/12/29 04:15:11;;;;;;;8.32;4.90;;;8.40;99.90;;;;;;5091135;28;20049;-73
2020/12/29 04:17:39;;;;;;;12.07;3.88;;;8.40;99.90;;;;;;5085090;28;20028;-76
2020/12/29 04:20:07;;;;;;;6.85;3.92;;;8.40;99.90;;;;;;5092873;28;20024;-73
2020/12/29 04:22:34;;;;;;;8.52;4.30;;;8.40;99.90;;;;;;5093287;28;20019;-73
2020/12/29 04:25:00;;;;;;;7.10;4.15;;;8.40;99.90;;;;;;5091514;28;20145;-74
2020/12/29 04:27:26;;;;;;;11.52;4.22;;;8.50;99.90;;;;;;5084737;28;20479;-73
2020/12/29 04:29:53;;;;;;;11.18;3.63;;;8.60;99.90;;;;;;5089912;28;20028;-72
2020/12/29 04:32:20;;;;;;;9.05;4.75;;;8.70;99.90;;;;;;5092247;28;20024;-72
2020/12/29 04:34:46;;;;;;;11.13;4.32;;;8.60;99.90;;;;;;5089735;28;20698;-73
2020/12/29 04:37:16;;;;;;;12.05;3.72;;;8.60;99.90;;;;;;5092089;28;20111;-76
2020/12/29 04:39:42;;;;;;;11.38;4.00;;;8.60;99.90;;;;;;5092664;28;20020;-74
2020/12/29 04:42:16;;;;;;;9.93;3.92;;;8.80;99.90;;;;;;5092288;28;20029;-75
2020/12/29 04:44:43;;;;;;;7.85;3.97;;;8.90;99.90;;;;;;5089236;28;20028;-73
2020/12/29 04:47:14;;;;;;;14.32;3.80;;;8.90;99.90;;;;;;5090917;28;20031;-73
2020/12/29 04:49:40;;;;;;;9.93;3.33;;;8.80;99.90;;;;;;5091900;28;20027;-73
2020/12/29 04:52:08;;;;;;;12.82;3.20;;;9.00;99.90;;;;;;5091939;28;20394;-73
2020/12/29 04:54:38;;;;;;;8.60;3.28;;;9.00;99.90;;;;;;5092675;28;20012;-73
2020/12/29 04:57:05;;;;;;;11.10;3.15;;;9.00;99.90;;;;;;5090624;28;20495;-74
2020/12/29 04:59:32;;;;;;;14.32;4.63;;;9.00;99.90;;;;;;5092116;28;20024;-74
2020/12/29 05:01:59;;;;;;;11.65;5.72;;;9.00;99.90;;;;;;5091057;28;20382;-72
2020/12/29 05:04:25;;;;;;;11.60;3.78;;;9.10;99.90;;;;;;5091298;28;20028;-73
2020/12/29 05:06:51;;;;;;;7.25;3.25;;;9.10;99.90;;;;;;5089889;28;20046;-74
2020/12/29 05:09:21;;;;;;;12.15;3.40;;;9.10;99.90;;;;;;5091535;28;20051;-72
2020/12/29 05:11:48;;;;;;;7.65;3.50;;;9.10;99.90;;;;;;5091763;28;20074;-73
2020/12/29 05:14:14;;;;;;;12.07;3.78;;;9.10;99.90;;;;;;5090498;28;20035;-73
2020/12/29 05:16:41;;;;;;;7.90;3.75;;;9.10;99.90;;;;;;5090117;28;20429;-73
2020/12/29 05:19:15;;;;;;;10.73;4.03;;;9.20;99.90;;;;;;5084460;28;20024;-73
2020/12/29 05:21:42;;;;;;;12.27;4.97;;;9.20;99.90;;;;;;5091281;28;20123;-73
2020/12/29 05:24:20;;;;;;;11.90;4.25;;;9.30;99.90;;;;;;5092279;28;20024;-77
2020/12/29 05:26:50;;;;;;;14.60;4.65;;;9.30;99.90;;;;;;5087443;28;20027;-73
2020/12/29 05:29:16;;;;;;;7.90;3.63;;;9.20;99.90;;;;;;5092066;28;20391;-72
2020/12/29 05:31:45;;;;;;;16.17;7.47;;;9.30;99.90;;;;;;5091870;28;20020;-73
2020/12/29 05:34:22;;;;;;;13.00;5.15;;;9.30;99.90;;;;;;5090705;28;20028;-74
2020/12/29 05:36:49;;;;;;;13.27;5.60;;;9.20;99.90;;;;;;5083597;28;20039;-73
2020/12/29 05:39:18;;;;;;;8.98;3.33;;;9.10;99.90;;;;;;5091406;28;20024;-72
2020/12/29 05:41:46;;;;;;;8.80;2.90;;;9.10;99.90;;;;;;5083876;28;20020;-73
2020/12/29 05:44:27;;;;;;;7.40;3.08;;;9.20;99.90;;;;;;5088941;28;20364;-74
2020/12/29 05:46:54;;;;;;;9.73;2.63;;;9.20;99.90;;;;;;5083144;28;20028;-73
2020/12/29 05:49:21;;;;;;;13.18;3.40;;;9.50;99.90;;;;;;5089816;28;20020;-74
2020/12/29 05:51:51;;;;;;;7.43;2.35;;;9.60;99.90;;;;;;5090847;28;20100;-74
2020/12/29 05:54:19;;;;;;;9.02;2.20;;;9.70;99.90;;;;;;5084706;28;20048;-72
2020/12/29 05:56:45;;;;;;;7.78;2.35;;;9.60;99.90;;;;;;5094497;28;20031;-75
2020/12/29 05:59:13;;;;;;;8.13;2.85;;;9.60;99.90;;;;;;5095472;28;20024;-73
2020/12/29 06:01:44;;;;;;;3.25;1.92;;;9.60;99.90;;;;;;5094155;28;20031;-73
2020/12/29 06:04:11;;;;;;;5.90;2.60;;;9.60;99.90;;;;;;5088809;28;20024;-73
2020/12/29 06:06:38;;;;;;;3.67;2.28;;;9.70;99.90;;;;;;5094607;28;20547;-77
2020/12/29 06:09:10;;;;;;;6.75;2.30;;;9.70;99.90;;;;;;5092855;28;20399;-73
2020/12/29 06:11:38;;;;;;;6.23;2.70;;;9.70;99.90;;;;;;5093701;28;20063;-73
2020/12/29 06:14:10;;;;;;;5.18;2.72;;;9.70;99.90;;;;;;5094998;28;20335;-72
2020/12/29 06:16:39;;;;;;;11.07;2.70;;;9.80;99.90;;;;;;5095098;28;20063;-74
2020/12/29 06:19:12;;;;;;;6.32;2.45;;;9.80;99.90;;;;;;5095118;28;20028;-76
2020/12/29 06:21:39;;;;;;;6.63;2.35;;;9.90;99.90;;;;;;5094699;28;20077;-74
2020/12/29 06:24:05;;;;;;;6.80;2.22;;;10.00;99.90;;;;;;5095414;28;20032;-72
2020/12/29 06:26:34;;;;;;;4.53;2.03;;;10.20;99.90;;;;;;5088583;28;20105;-72
2020/12/29 06:29:03;;;;;;;5.47;2.15;;;10.30;99.90;;;;;;5087739;28;20028;-73
2020/12/29 06:31:29;;;;;;;4.38;2.03;;;10.30;99.90;;;;;;5096611;28;20054;-72
2020/12/29 06:33:58;;;;;;;5.85;1.60;;;10.20;99.90;;;;;;5096625;28;20092;-73
2020/12/29 06:36:26;;;;;;;6.82;2.70;;;10.20;99.90;;;;;;5084602;28;20484;-74
2020/12/29 06:38:56;;;;;;;5.13;2.00;;;10.20;99.90;;;;;;5090878;28;20106;-74
2020/12/29 06:41:23;;;;;;;3.08;1.70;;;10.20;99.90;;;;;;5095210;28;20024;-74
2020/12/29 06:43:50;;;;;;;5.85;2.22;;;10.10;99.90;;;;;;5093309;28;20032;-73
2020/12/29 06:46:16;;;;;;;6.18;2.13;;;10.10;99.90;;;;;;5094086;28;20035;-74
2020/12/29 06:48:45;;;;;;;6.90;2.78;;;10.00;99.90;;;;;;5093597;28;20023;-75
2020/12/29 06:51:12;;;;;;;7.90;2.90;;;10.00;99.90;;;;;;5088184;28;20020;-75
2020/12/29 06:53:42;;;;;;;5.53;2.17;;;10.00;99.90;;;;;;5095112;28;20028;-74
2020/12/29 06:56:18;;;;;;;4.03;2.13;;;10.00;99.90;;;;;;5087734;28;20019;-72
2020/12/29 06:58:44;;;;;;;5.38;1.80;;;10.00;99.90;;;;;;5091817;28;20099;-73
2020/12/29 07:01:24;;;;;;;10.50;2.47;;;10.10;99.90;;;;;;5089762;28;20028;-73
2020/12/29 07:04:19;;;;;;;5.53;2.45;;;10.00;99.90;;;;;;5094517;28;20074;-73
2020/12/29 07:06:45;;;;;;;6.63;1.95;;;10.10;99.90;;;;;;5081756;28;20067;-73
2020/12/29 07:09:14;;;;;;;9.63;2.08;;;10.00;99.90;;;;;;5093084;28;20028;-72
2020/12/29 07:12:10;;;;;;;11.02;1.70;;;9.90;99.90;;;;;;5093745;28;20480;-74
2020/12/29 07:14:36;;;;;;;7.22;2.10;;;10.00;99.90;;;;;;5090724;28;20044;-74
2020/12/29 07:17:06;;;;;;;8.10;1.60;;;10.00;99.90;;;;;;5092680;28;20040;-73
2020/12/29 07:19:36;;;;;;;11.65;2.70;;;9.90;99.90;;;;;;5093228;28;20024;-72
2020/12/29 07:22:17;;;;;;;9.75;2.15;;;9.90;99.90;;;;;;5093235;28;20101;-73
2020/12/29 07:24:44;;;;;;;16.42;2.30;;;9.90;99.90;;;;;;5092847;28;20023;-73
2020/12/29 07:27:11;;;;;;;3.53;1.63;;;9.90;99.90;;;;;;5089990;28;20475;-72
2020/12/29 07:29:55;;;;;;;7.68;2.03;;;9.90;99.90;;;;;;5092714;28;20020;-73
2020/12/29 07:32:21;;;;;;;5.68;1.75;;;9.80;99.90;;;;;;5088303;28;20020;-73
2020/12/29 07:34:47;;;;;;;10.23;2.17;;;9.80;99.90;;;;;;5080112;28;20555;-74
2020/12/29 07:37:15;;;;;;;4.00;1.70;;;9.80;99.90;;;;;;5080338;28;20536;-74
2020/12/29 07:39:43;;;;;;;3.03;1.50;;;9.70;99.90;;;;;;5091625;28;20656;-74
2020/12/29 07:42:10;;;;;;;6.28;1.20;;;9.60;99.90;;;;;;5091542;28;20039;-72
2020/12/29 07:44:35;;;;;;;9.48;1.48;;;9.60;99.90;;;;;;5091489;28;20024;-73
2020/12/29 07:47:01;;;;;;;6.85;1.42;;;9.60;99.90;;;;;;5072615;28;20032;-72
2020/12/29 07:49:28;;;;;;;6.28;1.55;;;9.50;99.90;;;;;;5080231;28;20060;-72
2020/12/29 07:51:54;;;;;;;5.75;1.45;;;9.50;99.90;;;;;;5092644;28;20426;-72
2020/12/29 07:54:20;;;;;;;8.05;1.90;;;9.40;99.90;;;;;;5092545;28;20056;-75
2020/12/29 07:56:46;;;;;;;6.32;2.13;;;9.40;99.90;;;;;;5092959;28;20032;-72
2020/12/29 07:59:12;;;;;;;10.73;1.77;;;9.50;99.90;;;;;;5092948;28;20031;-72
2020/12/29 08:01:55;;;;;;;6.32;2.13;;;9.40;99.90;;;;;;5093727;28;20028;-73
2020/12/29 08:04:29;;;;;;;10.57;2.05;;;9.40;99.90;;;;;;5092297;28;20154;-72
2020/12/29 08:06:54;;;;;;;4.45;1.48;;;9.40;99.90;;;;;;5093570;28;20028;-75
2020/12/29 08:09:20;;;;;;;6.57;2.72;;;9.40;99.90;;;;;;5087455;28;20036;-74
2020/12/29 08:11:47;;;;;;;7.60;2.20;;;9.40;99.90;;;;;;5073408;28;20029;-73
2020/12/29 08:14:13;;;;;;;5.78;2.25;;;9.30;99.90;;;;;;5072136;28;20021;-75
2020/12/29 08:16:38;;;;;;;5.57;2.28;;;9.30;99.90;;;;;;5070772;28;20028;-72
2020/12/29 08:19:09;;;;;;;7.93;3.22;;;9.30;99.90;;;;;;5075401;28;20068;-73
2020/12/29 08:21:36;;;;;;;6.63;2.60;;;9.20;99.90;;;;;;5092875;28;20020;-74
2020/12/29 08:24:02;;;;;;;10.32;2.30;;;9.30;99.90;;;;;;5092339;28;20487;-73
2020/12/29 08:26:28;;;;;;;5.82;2.92;;;9.20;99.90;;;;;;5092327;28;20049;-74
2020/12/29 08:28:55;;;;;;;11.45;2.72;;;9.30;99.90;;;;;;5092275;28;20020;-73
2020/12/29 08:31:22;;;;;;;8.60;2.83;;;9.30;99.90;;;;;;5090188;28;20115;-72
2020/12/29 08:33:51;;;;;;;8.23;2.75;;;9.20;99.90;;;;;;5092269;28;20024;-72
2020/12/29 08:36:28;;;;;;;6.63;2.40;;;9.20;99.90;;;;;;5092497;28;20081;-72
2020/12/29 08:38:54;;;;;;;13.88;2.67;;;9.40;99.90;;;;;;5092121;28;20591;-72
2020/12/29 08:41:31;;;;;;;8.48;2.53;;;9.30;99.90;;;;;;5091329;28;20055;-73
2020/12/29 08:44:01;;;;;;;17.50;3.85;;;9.30;99.90;;;;;;5091927;28;20035;-72
2020/12/29 08:46:32;;;;;;;13.43;2.55;;;9.30;99.90;;;;;;5091650;28;20032;-73
2020/12/29 08:49:03;;;;;;;11.05;3.33;;;9.10;99.90;;;;;;5091797;28;20020;-70
2020/12/29 08:51:31;;;;;;;5.35;2.25;;;8.80;99.90;;;;;;5087516;28;20028;-70
2020/12/29 08:54:07;;;;;;;11.38;2.83;;;8.80;99.90;;;;;;5091596;28;20564;-71
2020/12/29 08:56:33;;;;;;;19.55;3.42;;;8.80;99.90;;;;;;5079182;28;20491;-73
2020/12/29 08:59:19;;;;;;;13.85;3.33;;;8.90;99.90;;;;;;5092027;28;20032;-74
2020/12/29 09:01:47;;;;;;;12.63;3.08;;;8.90;99.90;;;;;;5092293;28;20502;-71
2020/12/29 09:04:25;;;;;;;15.32;2.83;;;8.90;99.90;;;;;;5091236;28;20024;-73
2020/12/29 09:07:01;;;;;;;11.27;3.65;;;8.90;99.90;;;;;;5090666;28;20031;-73
2020/12/29 09:09:29;;;;;;;13.25;6.45;;;9.00;99.90;;;;;;5090522;28;20510;-73
2020/12/29 09:12:10;;;;;;;9.48;2.65;;;9.00;99.90;;;;;;5090864;28;20149;-74
2020/12/29 09:14:38;;;;;;;8.55;2.85;;;9.10;99.90;;;;;;5090486;28;20122;-74
2020/12/29 09:17:06;;;;;;;7.82;2.25;;;9.00;99.90;;;;;;5090686;28;20028;-74
2020/12/29 09:19:32;;;;;;;19.10;4.38;;;8.90;99.90;;;;;;5090815;28;20024;-73
2020/12/29 09:22:12;;;;;;;10.57;2.72;;;8.90;99.90;;;;;;5090631;28;20084;-72
2020/12/29 09:24:53;;;;;;;9.50;3.58;;;8.90;99.90;;;;;;5090582;28;20088;-72
2020/12/29 09:27:32;;;;;;;9.73;4.03;;;8.90;99.90;;;;;;5090657;28;20032;-72
2020/12/29 09:30:11;;;;;;;10.32;3.30;;;9.00;99.90;;;;;;5090541;28;20389;-71
2020/12/29 09:32:38;;;;;;;9.10;3.53;;;9.10;99.90;;;;;;5088918;28;20383;-72
2020/12/29 09:35:27;;;;;;;7.30;3.53;;;9.10;99.90;;;;;;5091212;28;20027;-71
2020/12/29 09:37:54;;;;;;;14.02;3.70;;;9.10;99.90;;;;;;5091901;28;20387;-72
2020/12/29 09:40:21;;;;;;;17.85;4.88;;;8.90;99.90;;;;;;5090098;28;20032;-71
2020/12/29 09:42:47;;;;;;;10.27;4.05;;;9.00;99.90;;;;;;5090698;28;20120;-72
2020/12/29 09:45:16;;;;;;;10.35;5.35;;;9.00;99.90;;;;;;5086231;28;20046;-72
2020/12/29 09:47:42;;;;;;;21.80;10.07;;;9.10;99.90;;;;;;5086249;28;20025;-73
2020/12/29 09:50:07;;;;;;;22.10;15.50;;;9.20;99.90;;;;;;5087393;28;20213;-72
2020/12/29 09:52:33;;;;;;;18.23;13.48;;;9.20;99.90;;;;;;5088234;28;20085;-71
2020/12/29 09:54:59;;;;;;;20.40;9.85;;;9.20;99.90;;;;;;5084076;28;20096;-72
2020/12/29 09:57:25;;;;;;;14.73;5.40;;;9.30;99.90;;;;;;5071205;28;20028;-71
2020/12/29 09:59:52;;;;;;;15.20;4.85;;;9.30;99.90;;;;;;5071115;28;20027;-74
2020/12/29 10:02:17;;;;;;;9.65;4.70;;;9.20;99.90;;;;;;5071039;28;20028;-72
2020/12/29 10:04:43;;;;;;;15.88;5.40;;;9.30;99.90;;;;;;5074077;28;20546;-75
2020/12/29 10:07:09;;;;;;;12.25;4.60;;;9.20;99.90;;;;;;5078348;28;20058;-71
2020/12/29 10:09:35;;;;;;;12.15;4.05;;;9.30;99.90;;;;;;5086201;28;20043;-72
2020/12/29 10:12:01;;;;;;;31.35;6.30;;;9.40;99.90;;;;;;5090187;28;20039;-73
2020/12/29 10:14:26;;;;;;;15.07;4.10;;;9.30;99.90;;;;;;5090550;28;20123;-75
2020/12/29 10:16:52;;;;;;;19.33;3.70;;;9.30;99.90;;;;;;5092632;28;20024;-74
2020/12/29 10:19:18;;;;;;;13.80;3.10;;;9.30;99.90;;;;;;5093115;28;20034;-72
2020/12/29 10:21:53;;;;;;;27.75;3.25;;;9.40;99.90;;;;;;5092872;28;20085;-72
2020/12/29 10:24:20;;;;;;;13.55;3.20;;;9.50;99.90;;;;;;5092274;28;20553;-75
2020/12/29 10:26:52;;;;;;;12.88;3.90;;;9.70;99.90;;;;;;5091830;28;20241;-72
2020/12/29 10:29:19;;;;;;;8.83;2.73;;;10.00;99.90;;;;;;5092878;28;20024;-72
2020/12/29 10:31:45;;;;;;;10.93;3.25;;;10.20;99.90;;;;;;5092325;28;20487;-74
2020/12/29 10:34:13;;;;;;;13.35;4.20;;;10.30;99.90;;;;;;5090731;28;20024;-74
2020/12/29 10:36:39;;;;;;;12.27;4.15;;;10.40;99.90;;;;;;5092344;28;20020;-75
2020/12/29 10:39:06;;;;;;;18.08;7.18;;;10.50;99.90;;;;;;5091310;28;20047;-75
2020/12/29 10:41:34;;;;;;;37.45;26.70;;;10.60;99.90;;;;;;5090646;28;20428;-71
2020/12/29 10:44:00;;;;;;;12.77;3.80;;;10.70;99.90;;;;;;5095922;28;20099;-75
2020/12/29 10:46:26;;;;;;;11.18;4.80;;;10.70;99.90;;;;;;5095493;28;20105;-74
2020/12/29 10:48:52;;;;;;;14.48;3.78;;;10.50;99.90;;;;;;5095097;28;20048;-75
2020/12/29 10:51:19;;;;;;;21.35;2.92;;;10.40;99.90;;;;;;5095192;28;20130;-74
2020/12/29 10:53:44;;;;;;;16.10;4.05;;;10.50;99.90;;;;;;5093742;28;20490;-72
2020/12/29 10:56:11;;;;;;;9.35;3.70;;;10.70;99.90;;;;;;5094833;28;20107;-74
2020/12/29 10:58:37;;;;;;;21.65;4.15;;;10.50;99.90;;;;;;5093491;28;20405;-73
2020/12/29 11:01:04;;;;;;;9.98;3.53;;;10.40;99.90;;;;;;5095136;28;20077;-71
2020/12/29 11:03:30;;;;;;;12.25;3.53;;;10.50;99.90;;;;;;5094767;28;20016;-73
2020/12/29 11:05:56;;;;;;;11.10;3.72;;;10.50;99.90;;;;;;5092925;28;20032;-73
2020/12/29 11:08:24;;;;;;;13.02;4.07;;;10.40;99.90;;;;;;5094648;28;20081;-71
2020/12/29 11:10:51;;;;;;;12.10;3.30;;;10.40;99.90;;;;;;5094390;28;20020;-71
2020/12/29 11:13:17;;;;;;;14.85;3.45;;;10.40;99.90;;;;;;5093560;28;20024;-73
2020/12/29 11:15:42;;;;;;;15.00;5.35;;;10.50;99.90;;;;;;5076245;28;20373;-73
2020/12/29 11:18:08;;;;;;;8.65;3.40;;;10.50;99.90;;;;;;5089962;28;20532;-74
2020/12/29 11:20:34;;;;;;;10.93;3.38;;;10.50;99.90;;;;;;5091868;28;20026;-74
2020/12/29 11:23:00;;;;;;;10.85;3.58;;;10.50;99.90;;;;;;5092843;28;20024;-72
2020/12/29 11:25:26;;;;;;;9.75;4.03;;;10.60;99.90;;;;;;5092003;28;20340;-73
2020/12/29 11:27:52;;;;;;;8.90;3.90;;;10.60;99.90;;;;;;5092293;28;20028;-73
2020/12/29 11:30:18;;;;;;;8.40;3.20;;;10.60;99.90;;;;;;5093843;28;20052;-73
2020/12/29 11:32:44;;;;;;;14.55;5.65;;;10.60;99.90;;;;;;5094396;28;20032;-73
2020/12/29 11:35:09;;;;;;;13.80;4.68;;;10.70;99.90;;;;;;5092241;28;20023;-72
2020/12/29 11:37:35;;;;;;;12.07;3.80;;;10.70;99.90;;;;;;5091446;28;20032;-72
2020/12/29 11:40:04;;;;;;;14.75;3.88;;;10.60;99.90;;;;;;5081938;28;20107;-72
2020/12/29 11:42:30;;;;;;;16.80;3.92;;;10.60;99.90;;;;;;5073326;28;20612;-71
2020/12/29 11:44:56;;;;;;;14.77;4.65;;;10.50;99.90;;;;;;5076452;28;20028;-71
2020/12/29 11:47:21;;;;;;;12.82;3.65;;;10.40;99.90;;;;;;5091732;28;20031;-73
2020/12/29 11:49:47;;;;;;;14.27;3.75;;;10.20;99.90;;;;;;5093840;28;20046;-73
2020/12/29 11:52:13;;;;;;;7.93;4.47;;;10.20;99.90;;;;;;5092062;28;20054;-72
2020/12/29 11:54:39;;;;;;;11.60;5.30;;;10.30;99.90;;;;;;5089804;28;20157;-72
2020/12/29 11:57:04;;;;;;;9.63;2.80;;;10.40;99.90;;;;;;5087230;28;20123;-71
2020/12/29 11:59:30;;;;;;;11.43;2.78;;;10.40;99.90;;;;;;5090892;28;20047;-72
2020/12/29 12:01:56;;;;;;;20.33;3.63;;;10.50;99.90;;;;;;5084192;28;20194;-72
2020/12/29 12:04:22;;;;;;;12.18;4.13;;;10.70;99.90;;;;;;5093671;28;20032;-74
2020/12/29 12:06:48;;;;;;;21.25;4.15;;;10.70;99.90;;;;;;5093399;28;20031;-72
2020/12/29 12:09:15;;;;;;;18.83;4.30;;;10.80;99.90;;;;;;5092568;28;20028;-73
2020/12/29 12:11:44;;;;;;;21.27;5.38;;;11.00;99.90;;;;;;5072307;28;20032;-74
2020/12/29 12:14:10;;;;;;;13.40;4.88;;;11.00;99.90;;;;;;5073996;28;20027;-73
2020/12/29 12:16:40;;;;;;;14.90;6.03;;;11.00;99.90;;;;;;5073242;28;20028;-73
2020/12/29 12:19:07;;;;;;;15.25;4.78;;;11.00;99.90;;;;;;5073432;28;20024;-74
2020/12/29 12:21:35;;;;;;;12.43;6.72;;;10.80;99.90;;;;;;5073211;28;20488;-72
2020/12/29 12:24:01;;;;;;;16.48;5.07;;;10.50;99.90;;;;;;5073483;28;20150;-72
2020/12/29 12:26:28;;;;;;;14.45;4.82;;;10.50;99.90;;;;;;5075667;28;20518;-72
2020/12/29 12:28:55;;;;;;;23.45;9.38;;;10.50;99.90;;;;;;5092410;28;20034;-72
2020/12/29 12:31:22;;;;;;;21.15;4.65;;;10.60;99.90;;;;;;5093562;28;20024;-74
2020/12/29 12:33:48;;;;;;;13.73;5.15;;;10.70;99.90;;;;;;5093289;28;20093;-72
2020/12/29 12:36:14;;;;;;;19.48;5.85;;;10.70;99.90;;;;;;5091567;28;20078;-72
2020/12/29 12:38:47;;;;;;;22.92;8.18;;;10.60;99.90;;;;;;5093545;28;20475;-72
2020/12/29 12:41:13;;;;;;;17.63;5.35;;;10.60;99.90;;;;;;5092855;28;20024;-72
2020/12/29 12:43:39;;;;;;;21.13;5.18;;;10.50;99.90;;;;;;5077052;28;20028;-71
2020/12/29 12:46:10;;;;;;;23.65;5.95;;;10.60;99.90;;;;;;5087702;28;20116;-71
2020/12/29 12:48:40;;;;;;;19.00;4.73;;;10.60;99.90;;;;;;5090223;28;20078;-72
2020/12/29 12:51:07;;;;;;;16.60;4.90;;;10.50;99.90;;;;;;5088190;28;20024;-72